Time;durP1;ratioP1;P1;durP2;ratioP2;P2;SDS_P1;SDS_P2;PMS_P1;PMS_P2;Temp;Humidity;BMP_temperature;BMP_pressure;BME280_temperature;BME280_humidity;BME280_pressure;Samples;Min_cycle;Max_cycle;Signal;HPM_P1;HPM_P2
2021/07/07 00:00:05;;;;;;;4.25;3.67;;;22.30;94.20;;;;;;5061470;28;20059;-92
2021/07/07 00:02:31;;;;;;;4.63;4.22;;;22.30;94.30;;;;;;5080197;28;20058;-91
2021/07/07 00:04:56;;;;;;;4.43;3.92;;;22.30;94.70;;;;;;5076164;28;20040;-91
2021/07/07 00:07:22;;;;;;;4.78;4.38;;;22.30;94.90;;;;;;5074409;28;20071;-92
2021/07/07 00:09:48;;;;;;;4.95;4.55;;;22.20;95.30;;;;;;5073633;28;20162;-93
2021/07/07 00:12:14;;;;;;;5.10;4.50;;;22.20;95.60;;;;;;5073115;28;20043;-92
2021/07/07 00:14:39;;;;;;;5.40;4.90;;;22.20;95.90;;;;;;5075480;28;20032;-93
2021/07/07 00:17:05;;;;;;;5.18;4.20;;;22.10;96.30;;;;;;5074234;28;20047;-93
2021/07/07 00:19:31;;;;;;;5.38;4.88;;;22.10;96.40;;;;;;5076718;28;20032;-93
2021/07/07 00:21:59;;;;;;;6.03;5.20;;;22.10;96.80;;;;;;5075759;28;20044;-94
2021/07/07 00:24:26;;;;;;;5.70;4.95;;;22.00;97.30;;;;;;5075555;28;20498;-93
2021/07/07 00:26:52;;;;;;;5.35;4.85;;;22.00;97.40;;;;;;5058947;28;20075;-93
2021/07/07 00:29:17;;;;;;;4.95;4.53;;;22.00;97.60;;;;;;5079053;28;20516;-89
2021/07/07 00:31:43;;;;;;;5.57;5.07;;;21.90;97.70;;;;;;5086132;28;20044;-93
2021/07/07 00:34:10;;;;;;;4.90;4.50;;;21.90;97.90;;;;;;5075137;28;20059;-94
2021/07/07 00:36:36;;;;;;;4.75;4.22;;;21.90;97.90;;;;;;5072846;28;20097;-92
2021/07/07 00:39:04;;;;;;;4.93;4.43;;;21.90;97.90;;;;;;5072721;28;20119;-92
2021/07/07 00:41:30;;;;;;;4.95;4.22;;;21.80;97.90;;;;;;5073859;28;20041;-90
2021/07/07 00:43:56;;;;;;;4.80;4.40;;;21.80;97.90;;;;;;5075855;28;20397;-91
2021/07/07 00:46:21;;;;;;;5.68;4.30;;;21.80;97.80;;;;;;5076221;28;20036;-88
2021/07/07 00:48:47;;;;;;;4.80;4.30;;;21.70;97.80;;;;;;5075781;28;20037;-89
2021/07/07 00:51:14;;;;;;;4.40;4.05;;;21.70;97.70;;;;;;5074070;28;20044;-90
2021/07/07 00:53:41;;;;;;;4.43;3.90;;;21.70;97.60;;;;;;5074807;28;20120;-90
2021/07/07 00:56:10;;;;;;;4.45;4.05;;;21.60;97.40;;;;;;5074094;28;20446;-86
2021/07/07 00:58:37;;;;;;;4.28;3.88;;;21.60;97.20;;;;;;5075170;28;20032;-89
2021/07/07 01:01:06;;;;;;;3.95;3.65;;;21.60;97.00;;;;;;5074603;28;20378;-90
2021/07/07 01:03:33;;;;;;;3.90;3.60;;;21.60;96.80;;;;;;5076078;28;20036;-90
2021/07/07 01:05:59;;;;;;;6.03;3.50;;;21.50;96.60;;;;;;5074913;28;20028;-88
2021/07/07 01:08:25;;;;;;;4.38;3.97;;;21.50;96.40;;;;;;5080073;28;20399;-90
2021/07/07 01:10:51;;;;;;;3.88;3.30;;;21.50;96.20;;;;;;5095767;28;20040;-90
2021/07/07 01:13:17;;;;;;;3.53;3.22;;;21.50;96.00;;;;;;5077104;28;20042;-91
2021/07/07 01:15:44;;;;;;;3.63;3.33;;;21.50;95.70;;;;;;5076651;28;20090;-90
2021/07/07 01:18:11;;;;;;;3.25;2.95;;;21.50;95.60;;;;;;5076717;28;20037;-90
2021/07/07 01:20:39;;;;;;;3.80;3.10;;;21.50;95.40;;;;;;5074128;28;20067;-91
2021/07/07 01:23:06;;;;;;;4.28;3.20;;;21.50;95.30;;;;;;5074313;28;20039;-90
2021/07/07 01:25:32;;;;;;;3.25;2.95;;;21.50;95.20;;;;;;5076154;28;20036;-88
2021/07/07 01:28:01;;;;;;;3.53;3.22;;;21.50;95.00;;;;;;5077764;28;20105;-90
2021/07/07 01:30:27;;;;;;;4.07;3.45;;;21.50;94.80;;;;;;5078225;28;20049;-89
2021/07/07 01:32:54;;;;;;;3.63;3.33;;;21.50;94.70;;;;;;5059245;28;20028;-91
2021/07/07 01:35:21;;;;;;;4.50;3.38;;;21.60;94.60;;;;;;5059075;28;20079;-87
2021/07/07 01:37:47;;;;;;;3.58;3.25;;;21.60;94.40;;;;;;5060770;28;20546;-88
2021/07/07 01:40:15;;;;;;;3.50;3.20;;;21.70;94.20;;;;;;5061153;28;20133;-89
2021/07/07 01:42:42;;;;;;;3.72;3.42;;;21.70;94.00;;;;;;5063095;28;20036;-93
2021/07/07 01:45:09;;;;;;;3.60;3.30;;;21.70;93.60;;;;;;5062857;28;20105;-94
2021/07/07 01:47:35;;;;;;;4.90;3.40;;;21.70;93.20;;;;;;5061610;28;20033;-93
2021/07/07 01:50:01;;;;;;;3.35;3.05;;;21.80;93.10;;;;;;5078769;28;20036;-93
2021/07/07 01:52:27;;;;;;;3.78;3.15;;;21.80;93.10;;;;;;5077020;28;20048;-85
2021/07/07 01:54:53;;;;;;;4.20;3.05;;;21.80;93.00;;;;;;5077386;28;20134;-88
2021/07/07 01:57:19;;;;;;;4.28;3.88;;;21.80;92.90;;;;;;5059937;28;20045;-91
2021/07/07 01:59:45;;;;;;;4.15;3.42;;;21.80;92.80;;;;;;5076671;28;20035;-89
2021/07/07 02:02:11;;;;;;;5.53;4.03;;;21.80;92.70;;;;;;5078023;28;20135;-90
2021/07/07 02:04:36;;;;;;;4.53;3.90;;;21.80;92.80;;;;;;5076388;28;20036;-89
2021/07/07 02:07:02;;;;;;;4.65;4.25;;;21.80;93.00;;;;;;5078942;28;20086;-90
2021/07/07 02:09:28;;;;;;;5.57;4.18;;;21.80;93.30;;;;;;5062457;28;20037;-88
2021/07/07 02:11:54;;;;;;;4.75;4.30;;;21.80;93.50;;;;;;5081133;28;20044;-89
2021/07/07 02:14:20;;;;;;;7.20;4.30;;;21.80;93.70;;;;;;5064939;28;20453;-91
2021/07/07 02:16:46;;;;;;;4.40;3.95;;;21.80;93.80;;;;;;5076500;28;20053;-89
2021/07/07 02:19:15;;;;;;;8.93;4.22;;;21.80;93.90;;;;;;5076979;28;20054;-91
2021/07/07 02:21:41;;;;;;;6.00;4.00;;;21.80;93.90;;;;;;5078025;28;20041;-88
2021/07/07 02:24:08;;;;;;;5.63;4.22;;;21.80;93.80;;;;;;5062692;28;20054;-92
2021/07/07 02:26:33;;;;;;;8.00;4.30;;;21.80;93.70;;;;;;5077337;28;20041;-90
2021/07/07 02:28:59;;;;;;;4.82;4.10;;;21.80;93.60;;;;;;5076456;28;20035;-88
2021/07/07 02:31:26;;;;;;;6.72;3.83;;;21.80;93.40;;;;;;5084730;28;20052;-90
2021/07/07 02:33:52;;;;;;;5.60;3.70;;;21.80;93.30;;;;;;5076642;28;20055;-89
2021/07/07 02:36:17;;;;;;;3.63;3.33;;;21.80;93.10;;;;;;5077560;28;20053;-89
2021/07/07 02:38:43;;;;;;;3.58;3.20;;;21.80;93.10;;;;;;5078748;28;20074;-88
2021/07/07 02:41:09;;;;;;;3.42;3.13;;;21.80;93.00;;;;;;5079016;28;20045;-89
2021/07/07 02:43:35;;;;;;;4.05;3.75;;;21.90;92.70;;;;;;5080433;28;20029;-88
2021/07/07 02:46:02;;;;;;;4.47;3.67;;;21.90;92.40;;;;;;5080861;28;20041;-92
2021/07/07 02:48:28;;;;;;;4.97;3.50;;;21.80;91.80;;;;;;5074861;28;20397;-92
2021/07/07 02:50:54;;;;;;;4.05;3.72;;;21.80;91.90;;;;;;5077646;28;20107;-90
2021/07/07 02:53:20;;;;;;;3.47;3.17;;;21.80;91.70;;;;;;5080100;28;20029;-88
2021/07/07 02:55:46;;;;;;;5.38;3.70;;;21.80;91.50;;;;;;5077378;28;20056;-86
2021/07/07 02:58:12;;;;;;;4.28;3.70;;;21.80;91.20;;;;;;5083473;28;20032;-87
2021/07/07 03:00:42;;;;;;;3.70;3.40;;;21.80;90.70;;;;;;5077689;28;20122;-89
2021/07/07 03:03:19;;;;;;;4.07;3.58;;;21.70;90.60;;;;;;5077504;28;20062;-91
2021/07/07 03:05:52;;;;;;;5.40;3.80;;;21.70;90.60;;;;;;5077290;28;20094;-89
2021/07/07 03:08:19;;;;;;;3.75;3.45;;;21.70;90.50;;;;;;5077127;28;20043;-91
2021/07/07 03:10:46;;;;;;;4.38;3.40;;;21.70;90.60;;;;;;5077165;28;20041;-89
2021/07/07 03:13:13;;;;;;;3.17;2.97;;;21.70;90.20;;;;;;5076159;28;20029;-90
2021/07/07 03:15:40;;;;;;;3.75;3.45;;;21.70;90.20;;;;;;5074874;28;20048;-87
2021/07/07 03:18:07;;;;;;;4.00;3.70;;;21.80;89.90;;;;;;5076584;28;20039;-87
2021/07/07 03:20:34;;;;;;;3.60;3.25;;;21.70;89.20;;;;;;5075933;28;20392;-91
2021/07/07 03:23:01;;;;;;;3.63;3.33;;;21.80;89.20;;;;;;5074843;28;20072;-88
2021/07/07 03:25:28;;;;;;;4.68;3.70;;;21.70;89.10;;;;;;5078646;28;20032;-85
2021/07/07 03:27:54;;;;;;;6.18;3.65;;;21.80;88.70;;;;;;5076796;28;20127;-89
2021/07/07 03:30:20;;;;;;;4.43;3.47;;;21.70;88.90;;;;;;5080701;28;20083;-89
2021/07/07 03:32:46;;;;;;;3.78;3.47;;;21.70;88.90;;;;;;5058864;28;20119;-88
2021/07/07 03:35:12;;;;;;;4.30;3.47;;;21.70;89.10;;;;;;5080360;28;20063;-90
2021/07/07 03:37:38;;;;;;;4.25;3.85;;;21.70;89.30;;;;;;5059498;28;20095;-92
2021/07/07 03:40:05;;;;;;;5.15;3.40;;;21.70;89.00;;;;;;5058166;28;20405;-88
2021/07/07 03:42:31;;;;;;;3.88;3.58;;;21.70;89.00;;;;;;5060565;28;20277;-90
2021/07/07 03:45:05;;;;;;;3.92;3.58;;;21.80;88.40;;;;;;5078705;28;20036;-92
2021/07/07 03:47:31;;;;;;;3.93;3.33;;;21.90;87.90;;;;;;5059045;28;20128;-93
2021/07/07 03:49:58;;;;;;;3.60;3.30;;;22.00;86.90;;;;;;5076591;28;20044;-90
2021/07/07 03:52:24;;;;;;;5.03;3.47;;;22.10;85.90;;;;;;5075074;28;20033;-90
2021/07/07 03:54:49;;;;;;;3.70;3.40;;;22.10;84.80;;;;;;5076959;28;20037;-92
2021/07/07 03:57:15;;;;;;;5.15;3.47;;;22.20;84.20;;;;;;5062594;28;20036;-89
2021/07/07 03:59:43;;;;;;;4.10;3.70;;;22.20;83.90;;;;;;5081485;28;20043;-89
2021/07/07 04:02:09;;;;;;;4.15;3.85;;;22.20;83.50;;;;;;5096461;22;20488;-93
2021/07/07 04:04:36;;;;;;;4.40;4.00;;;22.20;83.50;;;;;;5080035;28;20024;-94
2021/07/07 04:07:04;;;;;;;5.35;3.90;;;22.30;82.80;;;;;;5093327;28;20044;-94
2021/07/07 04:09:29;;;;;;;4.50;3.90;;;22.30;83.20;;;;;;5067221;28;20062;-92
2021/07/07 04:11:56;;;;;;;4.03;3.45;;;22.40;82.60;;;;;;5092795;28;20067;-90
2021/07/07 04:14:24;;;;;;;4.60;3.75;;;22.40;81.80;;;;;;5093534;28;20055;-92
2021/07/07 04:16:53;;;;;;;5.55;4.70;;;22.50;81.50;;;;;;5080782;28;20489;-91
2021/07/07 04:19:19;;;;;;;4.40;3.97;;;22.50;81.00;;;;;;5088039;28;20024;-92
2021/07/07 04:21:47;;;;;;;4.18;3.78;;;22.60;81.00;;;;;;5095782;28;20046;-92
2021/07/07 04:24:13;;;;;;;6.40;3.20;;;22.60;80.70;;;;;;5094591;28;20038;-92
2021/07/07 04:26:41;;;;;;;4.70;3.75;;;22.70;80.50;;;;;;5079788;28;20489;-93
2021/07/07 04:29:07;;;;;;;3.72;3.42;;;22.80;79.70;;;;;;5079929;28;20500;-93
2021/07/07 04:34:14;;;;;;;3.55;3.25;;;22.90;78.80;;;;;;5040762;28;20414;-89
2021/07/07 04:36:40;;;;;;;4.75;3.50;;;22.90;78.50;;;;;;5020289;28;20069;-91
2021/07/07 04:39:07;;;;;;;3.03;2.83;;;23.00;78.00;;;;;;5022080;28;20030;-92
2021/07/07 04:41:34;;;;;;;5.95;3.33;;;23.10;77.50;;;;;;5025568;28;20041;-90
2021/07/07 04:44:03;;;;;;;8.20;3.20;;;23.10;77.50;;;;;;5022373;28;20048;-93
2021/07/07 04:46:30;;;;;;;3.67;3.25;;;23.20;77.30;;;;;;5026579;28;20072;-91
2021/07/07 04:48:56;;;;;;;4.05;3.10;;;23.30;76.10;;;;;;5022905;28;20101;-91
2021/07/07 04:51:22;;;;;;;3.83;3.03;;;23.20;76.30;;;;;;5022531;28;20064;-92
2021/07/07 04:53:48;;;;;;;4.18;2.90;;;23.20;76.40;;;;;;5022582;28;20026;-92
2021/07/07 04:56:14;;;;;;;3.67;3.10;;;23.10;76.50;;;;;;5021387;28;20072;-92
2021/07/07 04:58:41;;;;;;;3.22;2.95;;;23.10;76.40;;;;;;5022301;28;20490;-90
2021/07/07 05:01:07;;;;;;;4.65;2.80;;;23.20;77.00;;;;;;5021960;28;20041;-90
2021/07/07 05:03:33;;;;;;;4.88;3.50;;;23.40;76.40;;;;;;5022199;28;20038;-92
2021/07/07 05:05:59;;;;;;;4.80;2.90;;;23.40;75.20;;;;;;5020490;28;20071;-92
2021/07/07 05:08:26;;;;;;;3.22;2.92;;;23.40;75.00;;;;;;5025181;28;20060;-91
2021/07/07 05:10:52;;;;;;;2.90;2.70;;;23.30;75.70;;;;;;5022882;28;20034;-92
2021/07/07 05:13:19;;;;;;;3.00;2.70;;;23.40;76.30;;;;;;5034308;28;20053;-92
2021/07/07 05:15:47;;;;;;;4.57;2.78;;;23.50;76.30;;;;;;5035481;28;20061;-91
2021/07/07 05:18:13;;;;;;;3.47;2.50;;;23.60;75.80;;;;;;5030600;28;20042;-92
2021/07/07 05:20:39;;;;;;;3.08;2.53;;;23.70;75.80;;;;;;5030240;28;20048;-92
2021/07/07 05:23:11;;;;;;;2.78;2.58;;;23.90;75.50;;;;;;5032211;28;20045;-91
2021/07/07 05:25:39;;;;;;;3.05;2.85;;;24.10;74.40;;;;;;5030118;28;20033;-90
2021/07/07 05:28:06;;;;;;;3.75;2.95;;;24.20;74.70;;;;;;5033591;28;20055;-93
2021/07/07 05:30:34;;;;;;;3.40;3.10;;;24.30;73.90;;;;;;5028581;28;20034;-90
2021/07/07 05:33:01;;;;;;;3.05;2.78;;;24.30;73.30;;;;;;5028643;28;20428;-90
2021/07/07 05:35:27;;;;;;;3.65;2.97;;;24.30;73.20;;;;;;5028500;28;20049;-88
2021/07/07 05:37:53;;;;;;;2.63;2.42;;;24.30;73.40;;;;;;5068809;22;20063;-92
2021/07/07 05:40:20;;;;;;;3.92;2.50;;;24.40;73.80;;;;;;5076275;28;20039;-93
2021/07/07 05:42:52;;;;;;;3.47;2.60;;;24.70;73.90;;;;;;5077607;28;20040;-92
2021/07/07 05:45:26;;;;;;;5.45;2.80;;;25.00;73.30;;;;;;5079910;28;20039;-94
2021/07/07 05:48:00;;;;;;;4.63;3.00;;;25.20;72.00;;;;;;5080532;28;20082;-93
2021/07/07 05:50:27;;;;;;;4.97;2.80;;;25.30;71.30;;;;;;5079514;28;20089;-93
2021/07/07 05:52:54;;;;;;;2.67;2.47;;;25.40;70.50;;;;;;5088204;28;20036;-91
2021/07/07 05:55:21;;;;;;;2.58;2.38;;;25.40;70.00;;;;;;5093384;28;20044;-92
2021/07/07 05:57:47;;;;;;;3.13;2.83;;;25.40;69.70;;;;;;5078247;28;20484;-92
2021/07/07 06:00:16;;;;;;;2.50;2.30;;;25.50;70.00;;;;;;5078601;28;20048;-92
2021/07/07 06:02:48;;;;;;;2.83;2.50;;;25.70;70.40;;;;;;5081765;28;20041;-93
2021/07/07 06:05:15;;;;;;;2.85;2.47;;;26.10;70.10;;;;;;5079038;28;20123;-92
2021/07/07 06:07:40;;;;;;;2.55;2.20;;;26.40;68.10;;;;;;5080828;28;20040;-93
2021/07/07 06:10:11;;;;;;;2.25;2.05;;;26.50;67.80;;;;;;5077748;28;20055;-94
2021/07/07 06:12:40;;;;;;;2.75;1.90;;;26.50;67.50;;;;;;5076097;28;20066;-92
2021/07/07 06:15:13;;;;;;;2.50;2.30;;;26.40;67.50;;;;;;5077126;28;20478;-94
2021/07/07 06:17:40;;;;;;;2.78;2.58;;;26.50;67.30;;;;;;5075220;28;20131;-92
2021/07/07 06:20:08;;;;;;;2.47;2.28;;;26.40;67.30;;;;;;5078537;28;20036;-92
2021/07/07 06:22:34;;;;;;;3.80;2.80;;;26.30;67.60;;;;;;5079266;28;20470;-92
2021/07/07 06:25:00;;;;;;;3.63;2.28;;;26.30;67.20;;;;;;5078362;28;20071;-93
2021/07/07 06:27:26;;;;;;;3.17;2.47;;;26.20;67.20;;;;;;5084031;28;20013;-92
2021/07/07 06:29:52;;;;;;;2.67;2.17;;;26.20;67.30;;;;;;5094147;28;20032;-91
2021/07/07 06:32:18;;;;;;;3.72;2.08;;;26.40;67.30;;;;;;5083458;28;20075;-93
2021/07/07 06:34:45;;;;;;;2.63;2.42;;;26.70;67.20;;;;;;5079895;28;20040;-92
2021/07/07 06:37:11;;;;;;;2.85;2.40;;;27.00;66.40;;;;;;5078560;28;20480;-92
2021/07/07 06:39:37;;;;;;;3.30;2.38;;;27.50;66.60;;;;;;5085609;28;20050;-92
2021/07/07 06:42:04;;;;;;;2.55;2.35;;;28.30;65.10;;;;;;5082762;28;20036;-93
2021/07/07 06:44:31;;;;;;;1.92;1.75;;;28.90;64.20;;;;;;5076319;28;20039;-92
2021/07/07 06:46:57;;;;;;;2.35;2.05;;;29.60;63.30;;;;;;5082397;28;20103;-94
2021/07/07 06:52:16;;;;;;;2.30;2.10;;;31.00;60.00;;;;;;5103356;28;20052;-88
2021/07/07 06:54:42;;;;;;;2.13;1.90;;;31.20;58.30;;;;;;5100488;28;20048;-90
2021/07/07 06:57:10;;;;;;;3.28;1.95;;;31.00;56.30;;;;;;5083361;28;20044;-90
2021/07/07 06:59:41;;;;;;;3.85;2.10;;;30.40;56.40;;;;;;5082259;28;20043;-90
2021/07/07 07:02:07;;;;;;;2.45;1.80;;;30.00;56.90;;;;;;5084729;28;20032;-90
2021/07/07 07:04:33;;;;;;;2.35;2.15;;;29.40;56.90;;;;;;5098092;28;20047;-87
2021/07/07 07:06:59;;;;;;;2.50;2.30;;;28.90;58.10;;;;;;5081333;28;20077;-90
2021/07/07 07:09:26;;;;;;;2.35;2.00;;;28.60;59.10;;;;;;5105507;28;20036;-87
2021/07/07 07:11:53;;;;;;;2.50;2.30;;;28.40;59.50;;;;;;5085209;28;20039;-90
2021/07/07 07:14:19;;;;;;;4.40;2.13;;;28.40;60.00;;;;;;5083590;28;20039;-89
2021/07/07 07:16:45;;;;;;;2.55;2.35;;;28.40;60.00;;;;;;5081361;28;20557;-90
2021/07/07 07:19:14;;;;;;;3.03;2.17;;;28.40;60.30;;;;;;5082183;28;20051;-91
2021/07/07 07:21:47;;;;;;;2.95;2.15;;;28.50;60.40;;;;;;5099497;28;20036;-92
2021/07/07 07:24:16;;;;;;;3.50;2.28;;;28.50;60.60;;;;;;5100884;28;20402;-92
2021/07/07 07:26:42;;;;;;;3.60;2.15;;;28.40;60.20;;;;;;5100593;28;20113;-91
2021/07/07 07:29:08;;;;;;;2.80;1.90;;;28.40;60.30;;;;;;5094775;28;20492;-89
2021/07/07 07:31:34;;;;;;;2.42;2.15;;;28.40;60.40;;;;;;5102479;28;20027;-89
2021/07/07 07:34:00;;;;;;;4.22;2.10;;;28.40;60.40;;;;;;5079377;28;20032;-88
2021/07/07 07:36:26;;;;;;;3.75;2.20;;;28.30;59.70;;;;;;5092916;28;20036;-89
2021/07/07 07:39:04;;;;;;;2.30;2.10;;;28.20;59.60;;;;;;5090235;28;20501;-90
2021/07/07 07:41:31;;;;;;;3.70;2.00;;;28.20;60.40;;;;;;5094490;28;20055;-89
2021/07/07 07:43:57;;;;;;;2.00;1.90;;;28.20;60.30;;;;;;5076601;28;20036;-90
2021/07/07 07:46:32;;;;;;;2.20;2.00;;;28.30;60.00;;;;;;5095832;28;20042;-90
2021/07/07 07:48:59;;;;;;;2.13;1.90;;;28.40;59.50;;;;;;5093214;28;20523;-89
2021/07/07 07:51:25;;;;;;;2.47;2.03;;;28.50;59.40;;;;;;5044784;28;1403309;-90
2021/07/07 07:53:50;;;;;;;2.00;1.90;;;28.70;59.30;;;;;;5075491;28;20465;-87
2021/07/07 07:56:17;;;;;;;7.03;1.90;;;28.90;59.20;;;;;;5075351;28;20043;-90
2021/07/07 07:58:43;;;;;;;4.18;1.83;;;29.10;59.00;;;;;;5079899;28;20492;-89
2021/07/07 08:01:09;;;;;;;3.58;2.03;;;29.30;58.80;;;;;;5102055;28;20113;-89
2021/07/07 08:03:36;;;;;;;2.95;2.10;;;29.50;58.10;;;;;;5087054;28;20028;-90
2021/07/07 08:06:02;;;;;;;1.98;1.88;;;29.50;57.00;;;;;;5083796;28;20384;-90
2021/07/07 08:08:28;;;;;;;2.45;2.10;;;29.50;57.40;;;;;;5077620;28;20036;-89
2021/07/07 08:10:53;;;;;;;2.60;1.60;;;29.60;57.30;;;;;;5092548;28;20059;-91
2021/07/07 08:13:19;;;;;;;2.35;2.00;;;29.80;57.60;;;;;;5094192;28;20059;-90
2021/07/07 08:15:45;;;;;;;3.50;1.90;;;30.10;57.30;;;;;;5092378;28;20054;-90
2021/07/07 08:18:11;;;;;;;3.25;1.63;;;30.30;57.20;;;;;;5093931;28;20040;-91
2021/07/07 08:20:38;;;;;;;3.42;2.10;;;30.80;57.20;;;;;;5078605;28;20024;-90
2021/07/07 08:23:04;;;;;;;2.80;1.95;;;31.20;56.10;;;;;;5079459;28;20093;-91
2021/07/07 08:25:30;;;;;;;2.17;1.90;;;31.50;54.20;;;;;;5094676;28;20122;-90
2021/07/07 08:28:04;;;;;;;2.58;1.80;;;31.70;54.00;;;;;;5079884;28;20044;-92
2021/07/07 08:30:30;;;;;;;3.40;2.00;;;31.80;53.20;;;;;;5092064;28;20036;-89
2021/07/07 08:32:58;;;;;;;2.30;2.10;;;31.80;53.00;;;;;;5097145;28;20044;-90
2021/07/07 08:35:24;;;;;;;2.33;2.13;;;32.00;53.20;;;;;;5100844;28;20032;-90
2021/07/07 08:37:50;;;;;;;4.80;2.53;;;32.30;52.50;;;;;;5100714;28;20044;-92
2021/07/07 08:40:17;;;;;;;2.60;2.40;;;32.50;52.10;;;;;;5095465;28;20032;-90
2021/07/07 08:42:44;;;;;;;4.40;2.30;;;32.90;51.80;;;;;;5074752;28;20047;-90
2021/07/07 08:45:13;;;;;;;5.88;2.30;;;33.60;51.80;;;;;;5078570;28;20496;-91
2021/07/07 08:47:42;;;;;;;2.40;2.20;;;34.00;50.70;;;;;;5079606;28;20025;-91
2021/07/07 08:50:18;;;;;;;2.75;2.50;;;34.00;49.70;;;;;;5082018;28;20041;-91
2021/07/07 08:52:44;;;;;;;2.92;2.50;;;33.80;48.60;;;;;;5095310;28;20058;-90
2021/07/07 08:55:12;;;;;;;3.00;2.35;;;33.80;49.90;;;;;;5093714;28;20036;-90
2021/07/07 08:57:42;;;;;;;3.20;2.20;;;34.40;49.90;;;;;;5077030;28;20036;-89
2021/07/07 09:00:20;;;;;;;2.55;2.35;;;35.20;49.40;;;;;;5078128;28;20064;-89
2021/07/07 09:03:07;;;;;;;2.20;2.00;;;35.80;46.90;;;;;;5079933;28;20078;-90
2021/07/07 09:05:50;;;;;;;3.20;2.10;;;35.70;47.00;;;;;;5079353;28;20036;-92
2021/07/07 09:08:25;;;;;;;3.35;1.90;;;35.90;46.10;;;;;;5079626;28;20485;-92
2021/07/07 09:10:52;;;;;;;2.53;2.33;;;35.90;46.20;;;;;;5080570;28;20040;-90
2021/07/07 09:13:18;;;;;;;2.65;2.30;;;35.80;45.60;;;;;;5079432;28;20032;-91
2021/07/07 09:15:45;;;;;;;2.40;2.20;;;35.40;46.00;;;;;;5087294;28;20480;-90
2021/07/07 09:18:33;;;;;;;3.28;2.20;;;35.10;46.30;;;;;;5095273;28;20385;-91
2021/07/07 09:21:00;;;;;;;2.72;2.00;;;34.60;46.10;;;;;;5084140;28;20039;-91
2021/07/07 09:23:27;;;;;;;2.92;2.33;;;34.30;46.90;;;;;;5082519;28;20032;-90
2021/07/07 09:26:06;;;;;;;2.60;2.30;;;34.10;46.70;;;;;;5081644;28;20029;-90
2021/07/07 09:28:35;;;;;;;2.20;2.10;;;33.70;46.70;;;;;;5082176;28;20126;-91
2021/07/07 09:31:26;;;;;;;2.65;2.30;;;33.20;47.60;;;;;;5081609;28;20032;-89
2021/07/07 09:33:52;;;;;;;2.58;2.08;;;33.20;48.30;;;;;;5085420;28;20040;-90
2021/07/07 09:36:23;;;;;;;2.72;2.22;;;33.20;48.60;;;;;;5098225;28;20069;-91
2021/07/07 09:38:51;;;;;;;2.30;2.10;;;33.30;48.70;;;;;;5088811;28;20520;-90
2021/07/07 09:41:18;;;;;;;2.28;2.05;;;33.30;48.40;;;;;;5080350;28;20028;-89
2021/07/07 09:43:54;;;;;;;2.20;2.03;;;33.50;48.60;;;;;;5081549;28;20033;-91
2021/07/07 09:46:22;;;;;;;2.35;2.15;;;33.90;48.40;;;;;;5077525;28;20060;-90
2021/07/07 09:48:50;;;;;;;2.85;2.17;;;34.70;48.50;;;;;;5080569;28;20038;-90
2021/07/07 09:51:18;;;;;;;2.20;2.00;;;35.60;47.70;;;;;;5081677;28;20097;-91
2021/07/07 09:53:45;;;;;;;7.07;2.10;;;36.00;46.70;;;;;;5081160;28;20036;-91
2021/07/07 09:56:10;;;;;;;2.10;2.00;;;36.50;46.80;;;;;;5078145;28;20047;-91
2021/07/07 09:58:36;;;;;;;2.92;2.03;;;37.10;46.20;;;;;;5098841;28;20032;-91
2021/07/07 10:01:03;;;;;;;2.20;2.00;;;37.70;45.50;;;;;;5104594;28;20029;-92
2021/07/07 10:03:29;;;;;;;2.47;1.95;;;38.10;44.90;;;;;;5065292;28;20127;-89
2021/07/07 10:05:59;;;;;;;1.70;1.60;;;38.20;44.50;;;;;;5099690;28;20062;-91
2021/07/07 10:08:28;;;;;;;2.00;1.90;;;38.00;44.00;;;;;;5084357;28;20097;-91
2021/07/07 10:10:57;;;;;;;3.75;1.80;;;37.60;44.50;;;;;;5090428;28;20062;-91
2021/07/07 10:13:26;;;;;;;5.70;2.20;;;37.60;44.70;;;;;;5086949;28;20043;-90
2021/07/07 10:15:53;;;;;;;4.63;1.92;;;37.90;45.00;;;;;;5082566;28;20066;-92
2021/07/07 10:18:20;;;;;;;3.20;1.90;;;38.50;44.80;;;;;;5106211;28;20036;-89
2021/07/07 10:20:46;;;;;;;2.38;1.80;;;39.20;44.30;;;;;;5104661;28;20065;-88
2021/07/07 10:23:15;;;;;;;2.13;1.80;;;39.60;43.60;;;;;;5081168;28;20039;-89
2021/07/07 10:25:43;;;;;;;3.50;2.00;;;39.60;42.30;;;;;;5087208;28;20036;-92
2021/07/07 10:28:13;;;;;;;4.90;1.90;;;39.20;42.70;;;;;;5082648;28;20158;-91
2021/07/07 10:30:57;;;;;;;3.05;1.75;;;39.10;43.10;;;;;;5082630;28;20043;-92
2021/07/07 10:33:28;;;;;;;1.85;1.75;;;39.50;42.80;;;;;;5084852;28;20058;-92
2021/07/07 10:36:14;;;;;;;2.28;1.80;;;39.90;42.30;;;;;;5086420;28;20561;-91
2021/07/07 10:38:40;;;;;;;2.10;1.60;;;40.50;41.90;;;;;;5089521;28;20071;-92
2021/07/07 10:41:05;;;;;;;2.15;1.73;;;40.80;40.90;;;;;;5086040;28;20035;-91
2021/07/07 10:43:47;;;;;;;1.90;1.80;;;40.90;40.40;;;;;;5105807;28;20140;-91
2021/07/07 10:46:53;;;;;;;1.52;1.42;;;41.10;39.60;;;;;;5080614;28;20028;-91
2021/07/07 10:49:46;;;;;;;1.50;1.30;;;41.00;39.70;;;;;;5098098;28;20028;-87
2021/07/07 10:52:45;;;;;;;1.70;1.60;;;41.10;39.70;;;;;;5078451;28;20040;-88
2021/07/07 10:55:13;;;;;;;1.98;1.50;;;41.10;40.30;;;;;;5024025;28;20365;-89
2021/07/07 10:57:40;;;;;;;2.03;1.50;;;41.60;40.60;;;;;;5076829;28;20039;-90
2021/07/07 11:00:31;;;;;;;1.70;1.40;;;42.00;39.90;;;;;;5095164;28;20058;-91
2021/07/07 11:06:21;;;;;;;6.25;1.30;;;42.70;37.90;;;;;;5093275;28;20355;-90
2021/07/07 11:08:49;;;;;;;1.60;1.50;;;42.60;37.70;;;;;;5077039;28;20040;-90
2021/07/07 11:11:23;;;;;;;1.35;1.25;;;42.60;38.10;;;;;;5081084;28;20032;-89
2021/07/07 11:13:51;;;;;;;1.20;1.10;;;42.80;38.00;;;;;;5081046;28;20044;-92
2021/07/07 11:16:22;;;;;;;2.88;1.60;;;42.90;37.80;;;;;;5080532;28;20046;-89
2021/07/07 11:18:49;;;;;;;2.08;1.02;;;43.20;37.20;;;;;;5078397;28;20536;-91
2021/07/07 11:21:15;;;;;;;2.70;1.48;;;43.30;37.40;;;;;;5081878;28;20489;-91
2021/07/07 11:23:47;;;;;;;3.30;1.73;;;43.50;37.30;;;;;;5090575;28;20111;-90
2021/07/07 11:26:13;;;;;;;2.03;1.50;;;43.10;36.80;;;;;;5084484;28;20070;-92
2021/07/07 11:28:41;;;;;;;7.25;1.42;;;42.60;36.70;;;;;;5085240;28;20523;-91
2021/07/07 11:31:07;;;;;;;4.97;1.92;;;42.30;37.20;;;;;;5079548;28;20140;-90
2021/07/07 11:33:33;;;;;;;5.38;1.63;;;42.30;37.10;;;;;;5098199;28;20075;-91
2021/07/07 11:35:59;;;;;;;1.10;1.10;;;42.40;36.90;;;;;;5097434;28;20051;-90
2021/07/07 11:38:27;;;;;;;2.80;1.35;;;42.70;37.10;;;;;;5078415;28;20055;-89
2021/07/07 11:40:56;;;;;;;3.17;1.33;;;43.30;37.00;;;;;;5078640;28;20050;-89
2021/07/07 11:43:25;;;;;;;5.60;1.20;;;43.90;36.80;;;;;;5087681;28;20039;-90
2021/07/07 11:46:10;;;;;;;1.60;1.33;;;44.10;36.60;;;;;;5085087;28;20032;-91
2021/07/07 11:48:45;;;;;;;1.23;1.13;;;44.40;35.90;;;;;;5078193;28;20036;-89
2021/07/07 11:51:15;;;;;;;3.38;1.67;;;44.40;36.00;;;;;;5080024;28;20048;-88
2021/07/07 11:53:46;;;;;;;4.47;1.70;;;44.40;35.50;;;;;;5078570;28;20040;-91
2021/07/07 11:56:19;;;;;;;1.95;1.40;;;43.90;35.00;;;;;;5078866;28;20134;-92
2021/07/07 11:58:59;;;;;;;3.83;1.52;;;43.00;35.30;;;;;;5082980;28;20036;-90
2021/07/07 12:01:33;;;;;;;1.48;1.30;;;42.50;35.60;;;;;;5080691;28;20036;-87
2021/07/07 12:03:59;;;;;;;2.05;1.20;;;42.50;36.40;;;;;;5079634;28;20043;-91
2021/07/07 12:06:38;;;;;;;2.83;1.40;;;42.60;36.50;;;;;;5080964;28;20038;-90
2021/07/07 12:09:18;;;;;;;2.20;1.40;;;42.90;35.60;;;;;;5080377;28;20040;-92
2021/07/07 12:11:55;;;;;;;1.05;1.05;;;42.90;35.40;;;;;;5076810;28;20028;-88
2021/07/07 12:14:25;;;;;;;2.40;1.63;;;43.00;35.90;;;;;;5078447;28;20504;-90
2021/07/07 12:16:51;;;;;;;1.50;1.40;;;42.90;35.50;;;;;;5062524;28;20051;-88
2021/07/07 12:19:18;;;;;;;5.85;1.55;;;42.70;35.70;;;;;;5078845;28;20258;-91
2021/07/07 12:21:54;;;;;;;2.40;1.45;;;42.80;35.80;;;;;;5097088;28;20024;-93
2021/07/07 12:24:26;;;;;;;2.90;1.63;;;42.80;35.50;;;;;;5081641;28;20044;-90
2021/07/07 12:26:54;;;;;;;5.90;1.15;;;42.60;35.60;;;;;;5083763;28;20122;-90
2021/07/07 12:29:25;;;;;;;1.10;1.10;;;42.10;35.80;;;;;;5081059;28;20101;-90
2021/07/07 12:31:56;;;;;;;1.23;1.10;;;42.10;36.20;;;;;;5076564;28;20455;-92
2021/07/07 12:34:39;;;;;;;2.22;1.17;;;42.60;36.20;;;;;;5082009;28;20131;-91
2021/07/07 12:37:13;;;;;;;1.75;1.50;;;43.00;35.80;;;;;;5077159;28;20036;-91
2021/07/07 12:40:03;;;;;;;2.13;1.38;;;42.80;35.40;;;;;;5079791;28;20040;-91
2021/07/07 12:42:40;;;;;;;5.50;1.20;;;43.10;35.70;;;;;;5079082;28;20036;-90
2021/07/07 12:45:12;;;;;;;1.52;1.20;;;43.60;35.80;;;;;;5078308;28;20189;-90
2021/07/07 12:47:39;;;;;;;1.90;1.30;;;43.70;35.50;;;;;;5081799;28;20036;-91
2021/07/07 12:50:24;;;;;;;1.30;1.20;;;43.70;35.80;;;;;;5061070;28;20040;-91
2021/07/07 12:52:51;;;;;;;2.72;1.30;;;44.20;35.50;;;;;;5097166;28;20040;-93
2021/07/07 12:55:20;;;;;;;2.63;1.50;;;44.20;34.90;;;;;;5076350;28;20463;-91
2021/07/07 12:58:02;;;;;;;2.80;1.20;;;44.10;34.90;;;;;;5078296;28;20039;-89
2021/07/07 13:00:33;;;;;;;1.83;1.27;;;44.10;35.20;;;;;;5078669;28;20036;-92
2021/07/07 13:03:03;;;;;;;1.20;1.10;;;44.50;35.30;;;;;;5075401;28;20042;-92